Time;durP1;ratioP1;P1;durP2;ratioP2;P2;SDS_P1;SDS_P2;PMS_P1;PMS_P2;Temp;Humidity;BMP_temperature;BMP_pressure;BME280_temperature;BME280_humidity;BME280_pressure;Samples;Min_cycle;Max_cycle;Signal;HPM_P1;HPM_P2
2021/04/03 00:00:00;;;;;;;6.97;5.80;;;;;;;4.38;100.00;96119.13;1019628;29;20381;-50
2021/04/03 00:00:34;;;;;;;7.40;5.80;;;;;;;4.35;100.00;96120.09;1011967;29;20032;-50
2021/04/03 00:01:05;;;;;;;7.95;5.80;;;;;;;4.34;100.00;96120.19;1011858;29;20021;-49
2021/04/03 00:01:36;;;;;;;7.55;5.55;;;;;;;4.33;100.00;96118.47;1023785;29;20342;-50
2021/04/03 00:02:07;;;;;;;7.93;5.75;;;;;;;4.29;100.00;96120.34;1019616;29;20304;-52
2021/04/03 00:02:38;;;;;;;8.32;6.38;;;;;;;4.31;100.00;96122.88;1011790;29;20782;-50
2021/04/03 00:03:10;;;;;;;9.27;6.50;;;;;;;4.30;100.00;96122.06;1011877;29;20028;-49
2021/04/03 00:03:41;;;;;;;7.55;5.85;;;;;;;4.31;100.00;96121.13;1012141;29;20028;-49
2021/04/03 00:04:12;;;;;;;7.63;5.47;;;;;;;4.32;100.00;96117.66;1020366;28;20267;-49
2021/04/03 00:04:43;;;;;;;8.68;6.10;;;;;;;4.33;100.00;96119.31;1019650;29;20075;-51
2021/04/03 00:05:15;;;;;;;7.63;5.70;;;;;;;4.42;100.00;96115.50;1015962;29;20023;-50
2021/04/03 00:05:45;;;;;;;8.18;5.40;;;;;;;4.47;100.00;96121.31;1019671;29;20026;-51
2021/04/03 00:06:16;;;;;;;7.07;5.13;;;;;;;4.50;100.00;96130.72;1019671;29;20818;-49
2021/04/03 00:06:47;;;;;;;7.63;5.50;;;;;;;4.53;100.00;96120.22;1023704;29;20038;-50
2021/04/03 00:07:18;;;;;;;7.35;5.57;;;;;;;4.52;100.00;96123.72;1023651;29;20067;-48
2021/04/03 00:07:49;;;;;;;9.73;5.93;;;;;;;4.56;100.00;96118.34;1023787;29;20027;-50
2021/04/03 00:08:24;;;;;;;6.88;5.28;;;;;;;4.57;100.00;96119.16;1023538;29;20086;-51
2021/04/03 00:08:55;;;;;;;6.88;5.32;;;;;;;4.61;100.00;96118.13;1023611;29;20628;-50
2021/04/03 00:09:26;;;;;;;7.03;5.30;;;;;;;4.65;100.00;96124.84;1019604;29;20290;-52
2021/04/03 00:09:56;;;;;;;7.70;5.38;;;;;;;4.64;100.00;96118.00;1031687;28;20258;-50
2021/04/03 00:10:32;;;;;;;7.72;5.43;;;;;;;4.49;100.00;96116.91;1027634;28;20484;-49
2021/04/03 00:11:05;;;;;;;7.22;5.22;;;;;;;4.53;100.00;96113.28;1019822;28;20024;-49
2021/04/03 00:11:36;;;;;;;7.78;5.63;;;;;;;4.58;100.00;96119.09;1019684;29;20271;-50
2021/04/03 00:12:08;;;;;;;6.88;5.55;;;;;;;4.58;100.00;96123.44;1019655;29;20295;-49
2021/04/03 00:12:40;;;;;;;8.38;5.45;;;;;;;4.62;100.00;96114.63;1019633;29;20020;-49
2021/04/03 00:13:11;;;;;;;8.93;5.95;;;;;;;4.63;100.00;96119.72;1019752;29;20275;-50
2021/04/03 00:13:42;;;;;;;7.35;5.40;;;;;;;4.66;100.00;96113.56;1015633;29;20820;-49
2021/04/03 00:14:13;;;;;;;8.10;5.57;;;;;;;4.64;100.00;96111.03;1016123;29;20745;-50
2021/04/03 00:14:45;;;;;;;7.78;5.90;;;;;;;4.62;100.00;96117.22;1015832;29;20277;-49
2021/04/03 00:15:16;;;;;;;7.32;5.57;;;;;;;4.59;100.00;96115.59;1015799;29;20116;-51
2021/04/03 00:15:47;;;;;;;8.60;6.07;;;;;;;4.60;100.00;96112.09;1015792;29;20279;-49
2021/04/03 00:16:18;;;;;;;7.15;5.35;;;;;;;4.61;100.00;96120.72;1015715;29;20032;-48
2021/04/03 00:16:48;;;;;;;8.10;5.82;;;;;;;4.62;100.00;96117.22;1019793;29;20051;-50
2021/04/03 00:17:19;;;;;;;7.90;5.47;;;;;;;4.60;100.00;96117.28;1015810;29;20042;-48
2021/04/03 00:17:50;;;;;;;8.07;5.40;;;;;;;4.60;100.00;96114.69;1019735;29;20038;-50
2021/04/03 00:18:20;;;;;;;7.43;5.90;;;;;;;4.58;100.00;96126.03;1015741;29;20068;-49
2021/04/03 00:18:51;;;;;;;7.50;5.78;;;;;;;4.52;100.00;96118.53;1015816;29;20042;-50
2021/04/03 00:19:22;;;;;;;7.97;5.70;;;;;;;4.48;100.00;96116.03;1023646;29;20031;-48
2021/04/03 00:19:55;;;;;;;7.32;6.05;;;;;;;4.44;100.00;96124.88;1023802;29;20053;-50
2021/04/03 00:20:30;;;;;;;10.35;6.57;;;;;;;4.43;100.00;96125.81;1019637;28;20058;-49
2021/04/03 00:21:01;;;;;;;7.78;5.82;;;;;;;4.36;100.00;96121.78;1023630;29;20290;-50
2021/04/03 00:21:31;;;;;;;7.35;5.75;;;;;;;4.28;100.00;96121.28;1023743;29;20259;-49
2021/04/03 00:22:04;;;;;;;7.90;6.40;;;;;;;4.26;100.00;96128.25;1027764;28;20085;-49
2021/04/03 00:22:34;;;;;;;8.85;6.07;;;;;;;4.23;100.00;96131.00;1019506;29;20498;-49
2021/04/03 00:23:05;;;;;;;8.07;6.20;;;;;;;4.28;100.00;96129.91;1011859;29;20269;-50
2021/04/03 00:23:36;;;;;;;8.65;6.18;;;;;;;4.31;100.00;96128.06;1015977;29;20189;-49
2021/04/03 00:24:07;;;;;;;8.85;5.93;;;;;;;4.37;100.00;96128.63;1019722;29;20346;-50
2021/04/03 00:24:38;;;;;;;7.75;5.72;;;;;;;4.35;100.00;96133.06;1015757;29;20031;-49
2021/04/03 00:25:09;;;;;;;7.88;5.60;;;;;;;4.43;100.00;96125.81;1019689;29;20307;-49
2021/04/03 00:25:40;;;;;;;8.75;5.82;;;;;;;4.48;100.00;96128.19;1015791;29;20064;-50
2021/04/03 00:26:13;;;;;;;6.88;5.35;;;;;;;4.47;100.00;96131.72;1012061;29;20400;-50
2021/04/03 00:26:43;;;;;;;7.60;5.70;;;;;;;4.50;100.00;96134.16;1015776;29;20518;-49
2021/04/03 00:27:14;;;;;;;7.35;5.85;;;;;;;4.51;100.00;96135.84;1019922;29;20240;-52
2021/04/03 00:27:45;;;;;;;7.43;6.05;;;;;;;4.51;100.00;96132.41;1015771;29;20142;-49
2021/04/03 00:28:16;;;;;;;8.07;5.55;;;;;;;4.54;100.00;96129.66;1011886;29;20036;-49
2021/04/03 00:28:48;;;;;;;9.10;6.93;;;;;;;4.53;100.00;96131.44;1015642;29;20126;-49
2021/04/03 00:29:19;;;;;;;8.68;6.78;;;;;;;4.56;100.00;96128.72;1023582;29;20043;-49
2021/04/03 00:29:49;;;;;;;10.40;5.82;;;;;;;4.53;100.00;96136.63;1015889;29;20307;-50
2021/04/03 00:30:20;;;;;;;8.07;6.00;;;;;;;4.55;100.00;96131.38;1015879;29;20472;-49
2021/04/03 00:30:51;;;;;;;7.72;5.85;;;;;;;4.57;100.00;96135.56;1017375;29;20434;-50
2021/04/03 00:31:23;;;;;;;8.32;5.47;;;;;;;4.60;100.00;96129.44;1019408;29;20028;-49
2021/04/03 00:31:53;;;;;;;8.38;5.90;;;;;;;4.62;100.00;96133.63;1023395;29;20051;-51
2021/04/03 00:32:24;;;;;;;7.63;5.43;;;;;;;4.52;100.00;96145.31;1022965;29;20282;-49
2021/04/03 00:32:58;;;;;;;8.93;5.80;;;;;;;4.48;100.00;96136.81;1023368;29;20609;-51
2021/04/03 00:33:29;;;;;;;10.27;6.20;;;;;;;4.47;100.00;96139.50;1023226;29;20027;-52
2021/04/03 00:33:59;;;;;;;9.90;6.03;;;;;;;4.50;100.00;96138.50;1027070;29;20283;-52
2021/04/03 00:34:30;;;;;;;10.25;5.68;;;;;;;4.49;100.00;96142.84;1023466;29;20052;-50
2021/04/03 00:35:01;;;;;;;8.48;5.60;;;;;;;4.51;100.00;96135.00;1019361;29;20383;-51
2021/04/03 00:35:33;;;;;;;8.95;6.55;;;;;;;4.50;100.00;96136.75;1019446;29;20045;-50
2021/04/03 00:36:04;;;;;;;7.82;5.82;;;;;;;4.54;100.00;96137.44;1019464;29;20031;-50
2021/04/03 00:36:35;;;;;;;9.23;6.30;;;;;;;4.42;100.00;96139.66;1027165;29;20785;-50
2021/04/03 00:37:06;;;;;;;8.25;6.25;;;;;;;4.41;100.00;96143.19;1023272;29;20331;-50
2021/04/03 00:37:36;;;;;;;8.55;6.10;;;;;;;4.47;100.00;96139.50;1019695;29;20020;-49
2021/04/03 00:38:08;;;;;;;10.25;5.68;;;;;;;4.46;100.00;96140.38;1028495;28;20496;-49
2021/04/03 00:38:39;;;;;;;8.00;5.85;;;;;;;4.37;100.00;96140.78;1028531;28;20038;-49
2021/04/03 00:39:10;;;;;;;8.63;6.22;;;;;;;4.41;100.00;96138.00;1016510;29;20314;-50
2021/04/03 00:39:41;;;;;;;8.75;6.18;;;;;;;4.44;100.00;96135.25;1024519;29;20101;-49
2021/04/03 00:40:16;;;;;;;7.50;5.60;;;;;;;4.42;100.00;96137.06;1020496;29;20067;-49
2021/04/03 00:40:48;;;;;;;9.07;6.18;;;;;;;4.42;100.00;96141.44;1024493;29;20273;-49
2021/04/03 00:41:19;;;;;;;10.15;6.50;;;;;;;4.44;100.00;96144.81;1024482;29;20270;-49
2021/04/03 00:41:50;;;;;;;7.40;5.82;;;;;;;4.45;100.00;96146.50;1020619;29;20252;-49
2021/04/03 00:42:21;;;;;;;8.70;6.28;;;;;;;4.39;100.00;96138.94;1028281;28;20481;-49
2021/04/03 00:42:52;;;;;;;8.48;5.93;;;;;;;4.42;100.00;96146.63;1028661;28;20585;-49
2021/04/03 00:43:23;;;;;;;8.48;6.30;;;;;;;4.37;100.00;96149.38;1016505;29;20331;-52
2021/04/03 00:43:54;;;;;;;7.70;5.95;;;;;;;4.40;100.00;96140.66;1016445;29;20016;-50
2021/04/03 00:44:25;;;;;;;7.40;5.70;;;;;;;4.42;100.00;96142.25;1016545;29;20115;-50
2021/04/03 00:44:55;;;;;;;8.32;5.97;;;;;;;4.41;100.00;96139.72;1016576;29;20569;-51
2021/04/03 00:45:26;;;;;;;7.72;6.30;;;;;;;4.41;100.00;96142.31;1020358;29;20110;-50
2021/04/03 00:45:57;;;;;;;9.48;5.93;;;;;;;4.40;100.00;96146.69;1020516;29;20025;-49
2021/04/03 00:46:27;;;;;;;10.77;6.65;;;;;;;4.32;100.00;96143.56;1024606;29;20101;-50
2021/04/03 00:46:58;;;;;;;10.05;6.13;;;;;;;4.34;100.00;96146.13;1032379;28;20042;-50
2021/04/03 00:47:29;;;;;;;8.60;6.07;;;;;;;4.34;100.00;96141.75;1024312;29;20023;-49
2021/04/03 00:48:00;;;;;;;9.20;6.10;;;;;;;4.32;100.00;96142.72;1020468;29;20027;-50
2021/04/03 00:48:30;;;;;;;9.35;6.03;;;;;;;4.32;100.00;96138.41;1020569;29;20106;-49
2021/04/03 00:49:02;;;;;;;9.00;6.32;;;;;;;4.36;100.00;96147.72;1020563;29;20107;-49
2021/04/03 00:49:33;;;;;;;8.52;5.63;;;;;;;4.34;100.00;96146.13;1012548;29;20028;-50
2021/04/03 00:50:04;;;;;;;8.20;5.90;;;;;;;4.25;100.00;96136.97;1012635;29;20810;-49
2021/04/03 00:50:37;;;;;;;8.60;6.10;;;;;;;4.16;100.00;96142.53;1020459;29;20019;-50
2021/04/03 00:51:09;;;;;;;9.43;6.00;;;;;;;4.12;100.00;96147.00;1016653;29;20607;-49
2021/04/03 00:51:41;;;;;;;7.97;5.72;;;;;;;4.14;100.00;96147.78;1020394;29;20268;-50
2021/04/03 00:52:12;;;;;;;9.75;6.88;;;;;;;4.13;100.00;96140.91;1024378;29;20259;-49
2021/04/03 00:52:43;;;;;;;8.98;5.57;;;;;;;4.17;100.00;96146.81;1016524;29;20303;-49
2021/04/03 00:53:16;;;;;;;9.13;5.43;;;;;;;4.17;100.00;96152.00;1020422;29;20318;-51
2021/04/03 00:53:46;;;;;;;10.20;6.10;;;;;;;4.16;100.00;96147.72;1016313;29;20024;-49
2021/04/03 00:54:17;;;;;;;9.20;5.80;;;;;;;4.17;100.00;96155.44;1020414;29;20338;-49
2021/04/03 00:54:48;;;;;;;9.60;5.95;;;;;;;4.12;100.00;96141.81;1016500;29;20020;-51
2021/04/03 00:55:18;;;;;;;8.65;6.18;;;;;;;4.11;100.00;96145.34;1020376;29;20462;-49
2021/04/03 00:55:49;;;;;;;11.13;6.40;;;;;;;4.09;100.00;96142.78;1020439;29;20024;-49
2021/04/03 00:56:20;;;;;;;9.40;5.80;;;;;;;4.06;100.00;96149.84;1016376;29;20020;-50
2021/04/03 00:56:51;;;;;;;8.93;6.13;;;;;;;4.11;100.00;96157.44;1012577;29;20036;-48
2021/04/03 00:57:21;;;;;;;8.68;5.57;;;;;;;4.12;100.00;96151.34;1020444;29;20028;-49
2021/04/03 00:57:52;;;;;;;10.07;6.15;;;;;;;4.18;100.00;96154.50;1024262;29;20027;-49
2021/04/03 00:58:23;;;;;;;9.25;6.22;;;;;;;4.13;100.00;96155.63;1032344;28;20069;-50
2021/04/03 00:58:54;;;;;;;10.48;5.70;;;;;;;4.07;100.00;96156.72;1024437;29;20046;-51
2021/04/03 00:59:25;;;;;;;8.85;6.18;;;;;;;4.01;100.00;96151.78;1024319;29;20023;-48
2021/04/03 00:59:56;;;;;;;11.15;6.30;;;;;;;4.00;100.00;96148.34;1024434;29;20255;-51
2021/04/03 01:00:27;;;;;;;8.77;5.50;;;;;;;4.01;100.00;96144.84;1028251;28;20034;-49
2021/04/03 01:00:57;;;;;;;12.18;6.25;;;;;;;4.07;100.00;96156.72;1016511;29;20032;-49
2021/04/03 01:01:39;;;;;;;9.25;6.00;;;;;;;4.02;100.00;96158.66;1020532;29;20075;-50
2021/04/03 01:02:10;;;;;;;11.50;6.45;;;;;;;4.05;100.00;96151.63;1020317;29;20270;-50
2021/04/03 01:02:41;;;;;;;10.75;6.00;;;;;;;4.01;100.00;96160.41;1020254;29;20274;-49
2021/04/03 01:03:12;;;;;;;8.43;5.88;;;;;;;4.10;100.00;96156.59;1024297;29;20047;-49
2021/04/03 01:03:43;;;;;;;9.90;5.75;;;;;;;4.11;100.00;96152.25;1024217;28;20122;-49
2021/04/03 01:04:14;;;;;;;9.60;6.28;;;;;;;4.08;100.00;96161.00;1020282;29;20259;-50
2021/04/03 01:04:45;;;;;;;9.40;5.78;;;;;;;4.02;100.00;96161.25;1024349;29;20035;-50
2021/04/03 01:05:20;;;;;;;10.68;6.13;;;;;;;4.03;100.00;96158.59;1016450;29;20031;-49
2021/04/03 01:05:52;;;;;;;10.40;5.65;;;;;;;4.02;100.00;96158.66;1020409;29;20038;-49
2021/04/03 01:06:22;;;;;;;8.25;5.63;;;;;;;4.03;100.00;96158.59;1024273;29;20254;-50
2021/04/03 01:06:53;;;;;;;15.57;6.20;;;;;;;4.01;100.00;96160.41;1024237;29;20341;-48
2021/04/03 01:07:24;;;;;;;13.20;6.05;;;;;;;3.90;100.00;96165.19;1016436;29;20040;-49
2021/04/03 01:07:55;;;;;;;10.48;6.20;;;;;;;3.87;100.00;96163.56;1028416;28;20138;-50
2021/04/03 01:08:26;;;;;;;7.60;5.57;;;;;;;3.85;100.00;96167.13;1020201;29;20263;-52
2021/04/03 01:08:57;;;;;;;10.27;5.80;;;;;;;3.92;100.00;96165.13;1028205;28;20262;-50
2021/04/03 01:09:28;;;;;;;10.35;5.45;;;;;;;3.94;100.00;96164.16;1020313;29;20028;-49
2021/04/03 01:09:59;;;;;;;8.25;5.85;;;;;;;3.93;100.00;96172.00;1024292;29;20501;-49
2021/04/03 01:10:33;;;;;;;11.35;5.90;;;;;;;3.88;100.00;96165.22;1028154;28;20026;-49
2021/04/03 01:11:04;;;;;;;10.10;6.50;;;;;;;3.89;100.00;96159.16;1032294;28;20311;-48
2021/04/03 01:11:35;;;;;;;8.00;5.63;;;;;;;3.95;100.00;96165.00;1028217;28;20301;-48
2021/04/03 01:12:20;;;;;;;8.63;5.68;;;;;;;3.93;100.00;96167.66;1020380;28;20024;-49
2021/04/03 01:12:58;;;;;;;10.40;5.85;;;;;;;3.89;100.00;96172.13;1020256;29;20259;-50
2021/04/03 01:13:49;;;;;;;9.07;6.25;;;;;;;3.92;100.00;96173.72;1020217;29;20260;-49
2021/04/03 01:14:23;;;;;;;7.90;5.38;;;;;;;3.89;100.00;96171.28;1020335;29;20322;-50
2021/04/03 01:15:04;;;;;;;12.95;5.72;;;;;;;3.88;100.00;96174.75;1020391;29;20355;-49
2021/04/03 01:15:52;;;;;;;9.07;5.53;;;;;;;3.85;100.00;96170.56;1025096;29;20269;-49
2021/04/03 01:16:44;;;;;;;10.45;5.60;;;;;;;3.77;100.00;96177.78;1024818;29;20807;-50
2021/04/03 01:17:21;;;;;;;10.60;5.45;;;;;;;3.80;100.00;96182.00;1020863;29;20271;-50
2021/04/03 01:18:03;;;;;;;8.93;5.68;;;;;;;3.71;100.00;96172.84;1020990;29;20317;-49
2021/04/03 01:18:55;;;;;;;12.35;6.32;;;;;;;3.81;100.00;96169.00;1020864;29;20266;-49
2021/04/03 01:19:39;;;;;;;9.40;5.85;;;;;;;3.75;100.00;96177.00;1024843;29;20753;-50
2021/04/03 01:20:12;;;;;;;11.13;6.13;;;;;;;3.81;100.00;96179.38;1017105;29;20264;-49
2021/04/03 01:20:49;;;;;;;11.15;6.20;;;;;;;3.70;100.00;96172.00;1012882;29;20783;-50
2021/04/03 01:21:43;;;;;;;11.27;5.78;;;;;;;3.64;100.00;96177.44;1021059;29;20298;-49
2021/04/03 01:22:24;;;;;;;9.10;5.93;;;;;;;3.66;100.00;96170.44;1021286;29;20263;-48
2021/04/03 01:23:09;;;;;;;12.93;5.72;;;;;;;3.63;100.00;96178.34;1021725;29;20256;-51
2021/04/03 01:23:50;;;;;;;13.82;5.78;;;;;;;3.61;100.00;96181.91;1016972;29;20256;-48
2021/04/03 01:24:35;;;;;;;11.63;5.60;;;;;;;3.64;100.00;96177.44;1017206;29;20260;-50
2021/04/03 01:25:27;;;;;;;10.07;5.97;;;;;;;3.58;100.00;96179.41;1021011;29;20412;-50
2021/04/03 01:26:07;;;;;;;10.75;5.68;;;;;;;3.52;100.00;96174.47;1013214;29;20253;-50
2021/04/03 01:26:41;;;;;;;;;;;;;;;3.53;100.00;96170.97;1017780;29;20347;-48
2021/04/03 01:27:21;;;;;;;9.98;4.90;;;;;;;3.46;100.00;96184.16;1017280;29;19959;-50
2021/04/03 01:28:05;;;;;;;8.57;4.93;;;;;;;3.47;100.00;96185.00;1024316;29;20625;-49
2021/04/03 01:28:43;;;;;;;13.63;6.03;;;;;;;3.47;100.00;96177.22;1028278;28;20026;-48
2021/04/03 01:29:26;;;;;;;11.65;5.55;;;;;;;3.47;100.00;96179.81;1016152;29;20256;-48
2021/04/03 01:30:07;;;;;;;10.38;5.25;;;;;;;3.44;100.00;96170.44;1024222;29;20259;-49
2021/04/03 01:30:37;;;;;;;8.23;5.50;;;;;;;3.45;100.00;96181.63;1020384;29;20256;-51
2021/04/03 01:31:08;;;;;;;10.15;5.50;;;;;;;3.43;100.00;96184.28;1016503;29;20024;-50
2021/04/03 01:31:39;;;;;;;9.82;5.30;;;;;;;3.46;100.00;96188.50;1021571;29;20011;-49
2021/04/03 01:32:10;;;;;;;12.38;5.70;;;;;;;3.50;100.00;96177.97;1016278;29;20016;-50
2021/04/03 01:32:56;;;;;;;9.20;5.35;;;;;;;3.48;100.00;96171.16;1020105;29;20259;-47
2021/04/03 01:33:27;;;;;;;11.45;5.85;;;;;;;3.39;100.00;96176.69;1020123;29;20382;-49
2021/04/03 01:33:58;;;;;;;8.93;4.82;;;;;;;3.42;100.00;96181.78;1020164;29;20282;-50
2021/04/03 01:34:31;;;;;;;9.95;5.40;;;;;;;3.39;100.00;96184.47;1016295;29;20249;-49
2021/04/03 01:35:03;;;;;;;9.65;5.20;;;;;;;3.35;100.00;96178.56;1012480;29;20628;-51
2021/04/03 01:35:38;;;;;;;9.38;5.22;;;;;;;3.34;100.00;96186.38;1016161;29;20703;-49
2021/04/03 01:36:14;;;;;;;11.80;5.10;;;;;;;3.38;100.00;96175.00;1016376;29;20320;-49
2021/04/03 01:36:45;;;;;;;9.63;5.05;;;;;;;3.46;100.00;96178.16;1016235;29;20266;-50
2021/04/03 01:37:20;;;;;;;19.58;5.13;;;;;;;3.47;100.00;96185.00;1016377;29;20252;-50
2021/04/03 01:37:56;;;;;;;9.02;5.00;;;;;;;3.44;100.00;96183.38;1020114;29;20271;-50
2021/04/03 01:38:32;;;;;;;8.75;4.90;;;;;;;3.41;100.00;96185.25;1016231;29;20273;-50
2021/04/03 01:39:06;;;;;;;10.02;5.88;;;;;;;3.40;100.00;96183.59;1020251;29;20263;-49
2021/04/03 01:39:37;;;;;;;9.05;4.72;;;;;;;3.38;100.00;96185.34;1022311;29;20686;-49
2021/04/03 01:40:09;;;;;;;11.98;5.03;;;;;;;3.38;100.00;96177.59;1021064;29;20263;-48
2021/04/03 01:40:39;;;;;;;13.63;5.22;;;;;;;3.37;100.00;96181.94;1024256;29;20728;-50
2021/04/03 01:41:13;;;;;;;11.40;5.70;;;;;;;3.38;100.00;96185.34;1020307;29;20263;-50
2021/04/03 01:41:47;;;;;;;9.27;4.97;;;;;;;3.37;100.00;96183.69;1024192;29;20469;-51
2021/04/03 01:42:19;;;;;;;13.07;5.28;;;;;;;3.34;100.00;96183.78;1019940;29;20263;-49
2021/04/03 01:42:53;;;;;;;10.43;4.93;;;;;;;3.35;100.00;96186.31;1016337;29;20300;-49
2021/04/03 01:43:27;;;;;;;11.85;5.30;;;;;;;3.39;100.00;96181.88;1024049;29;20342;-50
2021/04/03 01:43:58;;;;;;;11.15;4.50;;;;;;;3.41;100.00;96180.06;1023860;29;20986;-48
2021/04/03 01:44:38;;;;;;;8.80;4.70;;;;;;;3.46;100.00;96173.81;1024228;29;20804;-49
2021/04/03 01:45:09;;;;;;;10.70;4.70;;;;;;;3.44;100.00;96180.81;1024380;29;20764;-49
2021/04/03 01:45:40;;;;;;;9.98;4.65;;;;;;;3.46;100.00;96175.56;1020200;29;20028;-50
2021/04/03 01:46:12;;;;;;;12.80;5.30;;;;;;;3.46;100.00;96179.00;1016165;29;20272;-48
2021/04/03 01:46:42;;;;;;;9.60;4.90;;;;;;;3.46;100.00;96183.34;1016288;29;20260;-50
2021/04/03 01:47:13;;;;;;;10.02;4.70;;;;;;;3.51;100.00;96184.00;1016293;29;20268;-49
2021/04/03 01:47:44;;;;;;;10.02;4.45;;;;;;;3.44;100.00;96167.00;1012489;29;20321;-50
2021/04/03 01:48:16;;;;;;;8.52;4.78;;;;;;;3.44;100.00;96179.97;1020117;29;20324;-50
2021/04/03 01:48:47;;;;;;;9.57;4.80;;;;;;;3.47;100.00;96179.81;1016248;29;20394;-49
2021/04/03 01:49:23;;;;;;;10.57;4.80;;;;;;;3.45;100.00;96182.50;1011632;29;20683;-49
2021/04/03 01:49:55;;;;;;;9.75;5.15;;;;;;;3.38;100.00;96175.00;1019752;29;20267;-49
2021/04/03 01:50:26;;;;;;;9.43;4.57;;;;;;;3.41;100.00;96180.06;1020119;29;20607;-49
2021/04/03 01:50:56;;;;;;;10.93;4.40;;;;;;;3.45;100.00;96182.50;1016281;29;20263;-49
2021/04/03 01:51:27;;;;;;;10.45;4.93;;;;;;;3.47;100.00;96165.16;1016244;29;20024;-49
2021/04/03 01:51:58;;;;;;;10.40;4.60;;;;;;;3.42;100.00;96171.41;1016361;29;20106;-50
2021/04/03 01:52:32;;;;;;;13.68;4.97;;;;;;;3.42;100.00;96176.59;1012178;29;20253;-48
2021/04/03 01:53:02;;;;;;;8.13;4.65;;;;;;;3.37;100.00;96168.97;1020159;29;20030;-49
2021/04/03 01:53:33;;;;;;;10.52;4.63;;;;;;;3.44;100.00;96167.84;1027963;28;20249;-50
2021/04/03 01:54:04;;;;;;;12.07;5.07;;;;;;;3.49;100.00;96168.53;1028155;28;20129;-49
2021/04/03 01:54:35;;;;;;;9.40;4.80;;;;;;;3.49;100.00;96171.09;1024095;29;20504;-49
2021/04/03 01:55:09;;;;;;;10.02;4.32;;;;;;;3.50;100.00;96171.94;1016173;29;20283;-49
2021/04/03 01:55:39;;;;;;;10.68;5.03;;;;;;;3.43;100.00;96173.91;1012253;29;20024;-49
2021/04/03 01:56:11;;;;;;;11.77;5.80;;;;;;;3.42;100.00;96169.66;1024286;29;20302;-49
2021/04/03 01:56:42;;;;;;;12.20;5.10;;;;;;;3.45;100.00;96166.09;1023984;29;20503;-50
2021/04/03 01:57:13;;;;;;;11.77;5.28;;;;;;;3.47;100.00;96172.91;1024080;28;20681;-50
2021/04/03 01:57:45;;;;;;;9.73;4.95;;;;;;;3.46;100.00;96170.38;1016306;29;20370;-49
2021/04/03 01:58:16;;;;;;;8.02;4.65;;;;;;;3.47;100.00;96177.22;1012349;29;20025;-50
2021/04/03 01:58:47;;;;;;;11.88;4.53;;;;;;;3.52;100.00;96172.72;1012239;29;20775;-50
2021/04/03 01:59:18;;;;;;;13.20;4.97;;;;;;;3.49;100.00;96180.59;1020200;29;20050;-49
2021/04/03 01:59:49;;;;;;;9.63;4.55;;;;;;;3.47;100.00;96172.06;1020332;29;20020;-52
2021/04/03 02:00:23;;;;;;;7.95;4.57;;;;;;;3.49;100.00;96175.44;1016346;29;20080;-49
2021/04/03 02:00:54;;;;;;;10.75;4.68;;;;;;;3.41;100.00;96180.06;1027999;28;20643;-50
2021/04/03 02:01:24;;;;;;;12.82;4.97;;;;;;;3.37;100.00;96174.16;1016278;29;20260;-50
2021/04/03 02:01:55;;;;;;;8.40;4.95;;;;;;;3.40;100.00;96173.22;1020188;29;20020;-49
2021/04/03 02:02:26;;;;;;;12.30;4.40;;;;;;;3.45;100.00;96171.28;1016258;29;20110;-49
2021/04/03 02:02:57;;;;;;;10.27;5.03;;;;;;;3.43;100.00;96173.91;1020020;29;20663;-50
2021/04/03 02:03:32;;;;;;;8.48;3.95;;;;;;;3.38;100.00;96181.03;1024218;29;20025;-49
2021/04/03 02:04:03;;;;;;;8.85;4.70;;;;;;;3.46;100.00;96167.78;1024010;29;20019;-51
2021/04/03 02:04:34;;;;;;;10.40;4.70;;;;;;;3.45;100.00;96172.13;1024112;29;20329;-49
2021/04/03 02:05:05;;;;;;;13.95;4.95;;;;;;;3.42;100.00;96166.22;1020070;29;20652;-48
2021/04/03 02:05:37;;;;;;;8.75;4.32;;;;;;;3.46;100.00;96170.38;1032121;28;20018;-50
2021/04/03 02:06:07;;;;;;;7.75;4.32;;;;;;;3.45;100.00;96177.31;1024126;29;20250;-49
2021/04/03 02:06:40;;;;;;;9.45;4.47;;;;;;;3.37;100.00;96168.97;1020060;29;20272;-49
2021/04/03 02:07:13;;;;;;;7.97;3.97;;;;;;;3.35;100.00;96165.59;1016121;29;20119;-52
2021/04/03 02:07:44;;;;;;;9.23;4.20;;;;;;;3.37;100.00;96174.16;1020076;29;20657;-49
2021/04/03 02:08:15;;;;;;;11.13;5.28;;;;;;;3.36;100.00;96175.06;1016334;29;20256;-50
2021/04/03 02:08:48;;;;;;;9.68;4.32;;;;;;;3.36;100.00;96169.91;1020182;29;20028;-49
2021/04/03 02:09:19;;;;;;;10.57;4.53;;;;;;;3.34;100.00;96173.44;1016056;29;20035;-51
2021/04/03 02:09:50;;;;;;;14.60;4.53;;;;;;;3.38;100.00;96172.41;1024087;29;20625;-49
2021/04/03 02:10:24;;;;;;;10.07;4.68;;;;;;;3.33;100.00;96169.16;1032180;28;20101;-51
2021/04/03 02:11:00;;;;;;;10.73;4.40;;;;;;;3.28;100.00;96169.31;1024034;29;20258;-50
2021/04/03 02:11:33;;;;;;;11.38;5.13;;;;;;;3.27;100.00;96170.25;1024060;29;20259;-50
2021/04/03 02:12:05;;;;;;;9.05;4.32;;;;;;;3.26;100.00;96177.16;1024192;29;20322;-49
2021/04/03 02:12:37;;;;;;;10.15;4.68;;;;;;;3.29;100.00;96171.88;1019993;29;20302;-49
2021/04/03 02:13:08;;;;;;;7.07;4.45;;;;;;;3.34;100.00;96166.53;1020028;29;20266;-49
2021/04/03 02:13:39;;;;;;;13.05;4.82;;;;;;;3.35;100.00;96168.19;1015943;29;20271;-51
2021/04/03 02:14:10;;;;;;;8.77;4.50;;;;;;;3.39;100.00;96166.34;1016157;29;20035;-50
2021/04/03 02:14:41;;;;;;;10.77;4.40;;;;;;;3.31;100.00;96167.47;1016276;29;20493;-49
2021/04/03 02:15:13;;;;;;;11.70;4.40;;;;;;;3.38;100.00;96169.81;1020002;29;20354;-50
2021/04/03 02:15:43;;;;;;;12.75;4.85;;;;;;;3.39;100.00;96167.16;1016156;29;20024;-50
2021/04/03 02:16:14;;;;;;;10.30;4.65;;;;;;;3.25;100.00;96167.72;1016286;29;20256;-50
2021/04/03 02:16:45;;;;;;;12.45;5.15;;;;;;;3.23;100.00;96161.75;1024129;29;20489;-49
2021/04/03 02:17:16;;;;;;;9.15;4.25;;;;;;;3.27;99.92;96165.91;1016148;29;20103;-49
2021/04/03 02:17:49;;;;;;;10.63;4.75;;;;;;;3.32;100.00;96165.72;1016274;29;20024;-51
2021/04/03 02:18:20;;;;;;;8.98;4.22;;;;;;;3.31;99.62;96164.88;1016308;29;20770;-50
2021/04/03 02:18:51;;;;;;;11.48;4.50;;;;;;;3.26;99.61;96171.13;1020156;29;20255;-49
2021/04/03 02:19:22;;;;;;;13.65;4.78;;;;;;;3.16;100.00;96168.06;1020023;29;20031;-48
2021/04/03 02:19:53;;;;;;;19.88;5.15;;;;;;;3.20;100.00;96171.38;1016230;29;20296;-48
2021/04/03 02:20:24;;;;;;;9.63;4.32;;;;;;;3.20;100.00;96168.78;1020091;29;20075;-49
2021/04/03 02:20:58;;;;;;;11.55;4.95;;;;;;;3.18;100.00;96163.66;1020159;29;20024;-51
2021/04/03 02:21:28;;;;;;;11.55;4.72;;;;;;;3.21;100.00;96160.97;1020011;29;20263;-49
2021/04/03 02:21:59;;;;;;;8.32;4.78;;;;;;;3.27;100.00;96165.91;1024056;29;20541;-50
2021/04/03 02:22:30;;;;;;;11.52;3.80;;;;;;;3.30;100.00;96164.94;1020028;29;20024;-50
2021/04/03 02:23:01;;;;;;;9.45;4.40;;;;;;;3.29;100.00;96165.84;1024117;29;20299;-49
2021/04/03 02:23:32;;;;;;;19.50;4.95;;;;;;;3.34;100.00;96163.94;1023839;29;20019;-50
2021/04/03 02:24:04;;;;;;;9.95;4.22;;;;;;;3.35;99.42;96173.38;1020118;29;20080;-50
2021/04/03 02:24:34;;;;;;;10.27;4.55;;;;;;;3.27;100.00;96160.72;1016538;29;20283;-49
2021/04/03 02:25:06;;;;;;;11.73;4.68;;;;;;;3.33;99.79;96171.75;1016233;29;20320;-49
2021/04/03 02:25:37;;;;;;;9.98;4.03;;;;;;;3.35;99.14;96157.84;1016117;29;20048;-51
2021/04/03 02:26:08;;;;;;;6.97;3.70;;;;;;;3.37;98.96;96158.63;1020117;29;20331;-49
2021/04/03 02:26:39;;;;;;;11.48;4.35;;;;;;;3.34;99.52;96165.66;1020107;29;20031;-49
2021/04/03 02:27:09;;;;;;;9.23;3.85;;;;;;;3.41;98.98;96161.94;1024185;29;20097;-49
2021/04/03 02:27:40;;;;;;;11.10;4.15;;;;;;;3.41;98.08;96165.38;1023912;29;20019;-52
2021/04/03 02:28:11;;;;;;;9.50;3.53;;;;;;;3.41;98.28;96159.34;1016326;29;20036;-49
2021/04/03 02:28:42;;;;;;;19.23;8.63;;;;;;;3.41;99.33;96164.53;1024109;29;20030;-50
2021/04/03 02:29:13;;;;;;;9.68;5.38;;;;;;;3.34;99.08;96169.13;1016177;29;20115;-50
2021/04/03 02:29:44;;;;;;;11.50;4.30;;;;;;;3.36;97.34;96171.63;1016233;29;20021;-51
2021/04/03 02:30:19;;;;;;;9.43;4.13;;;;;;;3.30;97.67;96162.34;1016275;29;20036;-49
2021/04/03 02:30:49;;;;;;;11.25;4.25;;;;;;;3.37;97.53;96155.19;1016279;29;20308;-50
2021/04/03 02:31:20;;;;;;;10.95;4.18;;;;;;;3.33;98.87;96162.25;1016078;29;20260;-50
2021/04/03 02:31:51;;;;;;;11.38;5.10;;;;;;;3.38;98.70;96164.63;1020024;29;20024;-49
2021/04/03 02:32:22;;;;;;;9.18;4.25;;;;;;;3.43;98.79;96167.91;1016269;29;20164;-49
2021/04/03 02:32:54;;;;;;;11.70;4.50;;;;;;;3.41;98.22;96159.34;1016297;29;20020;-49